createdAt,value
2023-03-02T00:00:11.598Z,2.34
2023-03-02T00:02:40.898Z,2.37
2023-03-02T00:05:10.104Z,2.36
2023-03-02T00:07:38.375Z,2.33
2023-03-02T00:10:07.758Z,2.32
2023-03-02T00:12:35.701Z,2.26
2023-03-02T00:15:03.400Z,2.24
2023-03-02T00:17:31.028Z,2.27
2023-03-02T00:21:00.296Z,2.23
2023-03-02T00:23:05.033Z,2.25
2023-03-02T00:25:32.731Z,2.25
2023-03-02T00:28:00.416Z,2.26
2023-03-02T00:30:28.499Z,2.26
2023-03-02T00:32:58.445Z,2.19
2023-03-02T00:35:28.043Z,2.24
2023-03-02T00:37:56.072Z,2.23
2023-03-02T00:40:23.739Z,2.19
2023-03-02T00:42:51.420Z,2.18
2023-03-02T00:45:19.502Z,2.20
2023-03-02T00:47:47.128Z,2.24
2023-03-02T00:50:15.129Z,2.22
2023-03-02T00:52:44.166Z,2.23
2023-03-02T00:55:11.875Z,2.20
2023-03-02T00:57:39.439Z,2.23
2023-03-02T01:00:08.260Z,2.21
2023-03-02T01:02:35.991Z,2.18
2023-03-02T01:05:03.868Z,2.21
2023-03-02T01:07:31.490Z,2.15
2023-03-02T01:10:00.544Z,2.11
2023-03-02T01:12:28.250Z,2.11
2023-03-02T01:14:55.927Z,2.06
2023-03-02T01:17:25.233Z,2.10
2023-03-02T01:19:53.344Z,2.08
2023-03-02T01:22:21.839Z,2.07
2023-03-02T01:24:49.842Z,2.10
2023-03-02T01:27:21.024Z,2.04
2023-03-02T01:29:50.648Z,2.04
2023-03-02T01:32:18.534Z,2.02
2023-03-02T01:34:46.275Z,1.99
2023-03-02T01:37:13.894Z,1.99
2023-03-02T01:39:41.698Z,1.98
2023-03-02T01:42:09.278Z,1.95
2023-03-02T01:44:41.940Z,1.96
2023-03-02T01:47:15.815Z,2.01
2023-03-02T01:49:52.460Z,1.95
2023-03-02T01:52:21.039Z,1.98
2023-03-02T01:54:50.021Z,1.94
2023-03-02T01:57:23.654Z,1.94
2023-03-02T01:59:56.123Z,1.95
2023-03-02T02:02:24.541Z,1.91
2023-03-02T02:04:52.756Z,1.92
2023-03-02T02:07:20.483Z,1.92
2023-03-02T02:09:49.509Z,1.98
2023-03-02T02:12:18.685Z,1.96
2023-03-02T02:14:48.578Z,1.96
2023-03-02T02:17:19.533Z,1.97
2023-03-02T02:20:05.653Z,1.89
2023-03-02T02:22:43.843Z,1.90
2023-03-02T02:25:33.790Z,1.93
2023-03-02T02:28:08.513Z,1.96
2023-03-02T02:30:36.959Z,1.95
2023-03-02T02:33:05.727Z,1.96
2023-03-02T02:35:36.549Z,1.95
2023-03-02T02:38:05.887Z,1.93
2023-03-02T02:43:19.461Z,1.83
2023-03-02T02:45:48.196Z,1.86
2023-03-02T02:48:17.759Z,1.85
2023-03-02T02:50:45.994Z,1.76
2023-03-02T02:53:15.716Z,1.79
2023-03-02T02:55:44.204Z,1.78
2023-03-02T02:58:28.444Z,1.74
2023-03-02T03:00:56.453Z,1.68
2023-03-02T03:03:31.242Z,1.68
2023-03-02T03:06:00.423Z,1.72
2023-03-02T03:08:52.997Z,1.67
2023-03-02T03:11:24.244Z,1.54
2023-03-02T03:13:56.829Z,1.58
2023-03-02T03:16:25.570Z,1.57
2023-03-02T03:18:54.592Z,1.52
2023-03-02T03:21:22.483Z,1.57
2023-03-02T03:23:50.105Z,1.54
2023-03-02T03:26:17.775Z,1.53
2023-03-02T03:28:45.421Z,1.56
2023-03-02T03:31:14.563Z,1.52
2023-03-02T03:33:42.169Z,1.52
2023-03-02T03:36:09.937Z,1.49
2023-03-02T03:38:37.731Z,1.49
2023-03-02T03:41:05.590Z,1.45
2023-03-02T03:43:33.309Z,1.52
2023-03-02T03:46:01.073Z,1.46
2023-03-02T03:48:30.289Z,1.48
2023-03-02T03:51:01.506Z,1.49
2023-03-02T03:53:29.401Z,1.51
2023-03-02T03:55:57.965Z,1.45
2023-03-02T03:58:26.520Z,1.42
2023-03-02T04:00:54.489Z,1.46
2023-03-02T04:03:22.381Z,1.45
2023-03-02T04:05:51.581Z,1.43
2023-03-02T04:08:19.203Z,1.42
2023-03-02T04:10:47.468Z,1.42
2023-03-02T04:13:15.185Z,1.40
2023-03-02T04:15:47.288Z,1.44
2023-03-02T04:18:15.001Z,1.44
2023-03-02T04:20:42.727Z,1.48
2023-03-02T04:23:11.757Z,1.45
2023-03-02T04:25:39.296Z,1.46
2023-03-02T04:28:06.942Z,1.47
2023-03-02T04:30:34.630Z,1.49
2023-03-02T04:33:02.349Z,1.47
2023-03-02T04:35:29.953Z,1.52
2023-03-02T04:37:57.594Z,1.52
2023-03-02T04:40:26.781Z,1.51
2023-03-02T04:42:54.321Z,1.47
2023-03-02T04:45:22.401Z,1.48
2023-03-02T04:47:49.987Z,1.45
2023-03-02T04:50:17.629Z,1.49
2023-03-02T04:52:45.259Z,1.53
2023-03-02T04:55:17.414Z,1.50
2023-03-02T04:57:46.343Z,1.51
2023-03-02T05:00:14.754Z,1.50
2023-03-02T05:02:42.796Z,1.51
2023-03-02T05:05:13.971Z,1.52
2023-03-02T05:07:41.966Z,1.52
2023-03-02T05:10:11.062Z,1.52
2023-03-02T05:12:54.718Z,1.54
2023-03-02T05:15:25.335Z,1.54
2023-03-02T05:17:53.224Z,1.52
2023-03-02T05:20:28.623Z,1.55
2023-03-02T05:23:00.573Z,1.49
2023-03-02T05:25:30.381Z,1.53
2023-03-02T05:27:58.965Z,1.50
2023-03-02T05:31:00.896Z,1.51
2023-03-02T05:37:29.011Z,1.50
2023-03-02T05:39:57.077Z,1.45
2023-03-02T05:42:26.323Z,1.46
2023-03-02T05:44:59.052Z,1.43
2023-03-02T05:47:29.779Z,1.39
2023-03-02T05:50:19.497Z,1.39
2023-03-02T05:53:04.874Z,1.37
2023-03-02T05:55:47.171Z,1.39
2023-03-02T05:58:17.817Z,1.42
2023-03-02T06:00:56.089Z,1.37
2023-03-02T06:03:27.431Z,1.42
2023-03-02T06:05:56.916Z,1.42
2023-03-02T06:08:24.497Z,1.44
2023-03-02T06:10:58.376Z,1.39
2023-03-02T06:16:51.960Z,1.38
2023-03-02T06:19:20.971Z,1.37
2023-03-02T06:21:48.514Z,1.42
2023-03-02T06:24:16.106Z,1.41
2023-03-02T06:26:43.946Z,1.40
2023-03-02T06:29:13.189Z,1.34
2023-03-02T06:31:40.812Z,1.33
2023-03-02T06:34:08.337Z,1.37
2023-03-02T06:36:38.715Z,1.38
2023-03-02T06:39:06.906Z,1.38
2023-03-02T06:41:34.651Z,1.41
2023-03-02T06:44:02.525Z,1.37
2023-03-02T06:46:30.139Z,1.42
2023-03-02T06:48:57.693Z,1.45
2023-03-02T06:51:25.145Z,1.52
2023-03-02T06:53:53.966Z,1.59
2023-03-02T06:56:21.460Z,1.64
2023-03-02T06:58:48.969Z,1.62
2023-03-02T07:01:16.682Z,1.66
2023-03-02T07:03:44.594Z,1.71
2023-03-02T07:06:12.581Z,1.74
2023-03-02T07:08:40.270Z,1.78
2023-03-02T07:11:11.527Z,1.83
2023-03-02T07:13:39.541Z,1.86
2023-03-02T07:16:08.881Z,1.90
2023-03-02T07:18:37.117Z,1.93
2023-03-02T07:21:05.284Z,2.00
2023-03-02T07:23:33.035Z,2.06
2023-03-02T07:26:00.532Z,2.08
2023-03-02T07:28:31.886Z,2.17
2023-03-02T07:30:59.530Z,2.23
2023-03-02T07:33:27.623Z,2.26
2023-03-02T07:35:55.192Z,2.34
2023-03-02T07:38:22.823Z,2.38
2023-03-02T07:40:50.609Z,2.39
2023-03-02T07:43:18.296Z,2.43
2023-03-02T07:45:47.193Z,2.47
2023-03-02T07:48:14.819Z,2.52
2023-03-02T07:50:42.287Z,2.55
2023-03-02T07:53:09.891Z,2.61
2023-03-02T07:55:41.664Z,2.65
2023-03-02T07:58:09.552Z,2.71
2023-03-02T08:00:37.280Z,2.75
2023-03-02T08:03:06.417Z,2.83
2023-03-02T08:05:34.208Z,2.90
2023-03-02T08:08:01.784Z,2.91
2023-03-02T08:10:29.486Z,3.07
2023-03-02T08:12:57.260Z,3.10
2023-03-02T08:15:24.776Z,3.21
2023-03-02T08:17:52.978Z,3.27
2023-03-02T08:20:22.008Z,3.29
2023-03-02T08:22:49.596Z,3.37
2023-03-02T08:25:17.235Z,3.42
2023-03-02T08:27:45.912Z,3.51
2023-03-02T08:30:14.522Z,3.57
2023-03-02T08:32:42.117Z,3.68
2023-03-02T08:35:10.150Z,3.74
2023-03-02T08:37:39.101Z,3.83
2023-03-02T08:40:08.043Z,3.91
2023-03-02T08:42:35.644Z,3.97
2023-03-02T08:45:03.947Z,3.99
2023-03-02T08:47:32.458Z,3.99
2023-03-02T08:50:00.148Z,4.10
2023-03-02T08:52:32.916Z,4.19
2023-03-02T08:55:03.734Z,4.31
2023-03-02T08:57:31.717Z,4.38
2023-03-02T08:59:59.234Z,4.42
2023-03-02T09:02:26.902Z,4.47
2023-03-02T09:04:55.763Z,4.51
2023-03-02T09:07:23.408Z,4.56
2023-03-02T09:09:51.004Z,4.63
2023-03-02T09:12:20.041Z,4.74
2023-03-02T09:14:47.647Z,4.80
2023-03-02T09:17:15.661Z,4.84
2023-03-02T09:19:44.654Z,4.92
2023-03-02T09:22:12.556Z,4.99
2023-03-02T09:24:40.061Z,5.06
2023-03-02T09:27:07.547Z,5.15
2023-03-02T09:29:36.440Z,5.14
2023-03-02T09:32:04.196Z,5.16
2023-03-02T09:34:31.786Z,5.18
2023-03-02T09:36:59.325Z,5.31
2023-03-02T09:39:26.935Z,5.39
2023-03-02T09:42:15.080Z,5.42
2023-03-02T09:44:59.391Z,5.49
2023-03-02T09:47:35.742Z,5.61
2023-03-02T09:50:12.227Z,5.66
2023-03-02T09:52:42.245Z,5.78
2023-03-02T09:55:14.324Z,5.93
2023-03-02T09:57:42.188Z,5.92
2023-03-02T10:00:19.898Z,5.96
2023-03-02T10:02:49.966Z,6.02
2023-03-02T10:05:29.152Z,6.04
2023-03-02T10:07:59.061Z,6.09
2023-03-02T10:10:30.455Z,6.17
2023-03-02T10:13:06.899Z,6.17
2023-03-02T10:15:39.749Z,6.25
2023-03-02T10:18:17.183Z,6.40
2023-03-02T10:20:48.974Z,6.42
2023-03-02T10:23:27.630Z,6.45
2023-03-02T10:26:01.084Z,6.59
2023-03-02T10:28:33.193Z,6.80
2023-03-02T10:31:09.564Z,6.86
2023-03-02T10:33:38.547Z,6.82
2023-03-02T10:36:07.077Z,6.93
2023-03-02T10:38:38.304Z,6.98
2023-03-02T10:41:08.532Z,7.10
2023-03-02T10:43:38.179Z,7.20
2023-03-02T10:46:08.681Z,7.25
2023-03-02T10:48:49.675Z,7.30
2023-03-02T10:51:25.844Z,7.30
2023-03-02T10:54:04.677Z,7.40
2023-03-02T10:56:33.135Z,7.41
2023-03-02T10:59:03.362Z,7.40
2023-03-02T11:01:32.648Z,7.56
2023-03-02T11:04:02.168Z,7.64
2023-03-02T11:06:31.220Z,7.68
2023-03-02T11:09:00.828Z,7.73
2023-03-02T11:11:28.569Z,7.82
2023-03-02T11:13:57.215Z,7.89
2023-03-02T11:16:28.740Z,7.94
2023-03-02T11:19:01.638Z,7.99
2023-03-02T11:21:32.321Z,7.99
2023-03-02T11:24:08.800Z,8.06
2023-03-02T11:26:40.004Z,8.10
2023-03-02T11:29:13.254Z,8.15
2023-03-02T11:31:44.340Z,8.26
2023-03-02T11:34:22.761Z,8.36
2023-03-02T11:36:59.079Z,8.41
2023-03-02T11:39:32.151Z,8.54
2023-03-02T11:41:59.698Z,8.59
2023-03-02T11:44:27.365Z,8.68
2023-03-02T11:46:59.677Z,8.81
2023-03-02T11:49:38.252Z,8.78
2023-03-02T11:52:06.369Z,8.82
2023-03-02T11:54:37.706Z,8.88
2023-03-02T11:57:05.564Z,8.94
2023-03-02T11:59:36.112Z,8.97
2023-03-02T12:02:04.172Z,9.05
2023-03-02T12:04:35.891Z,9.15
2023-03-02T12:07:05.515Z,9.21
2023-03-02T12:09:36.722Z,9.34
2023-03-02T12:12:36.954Z,9.36
2023-03-02T12:15:05.267Z,9.39
2023-03-02T12:17:34.948Z,9.45
2023-03-02T12:20:23.953Z,9.51
2023-03-02T12:22:53.658Z,9.57
2023-03-02T12:25:30.318Z,9.56
2023-03-02T12:27:57.820Z,9.67
2023-03-02T12:30:27.214Z,9.71
2023-03-02T12:33:13.449Z,9.81
2023-03-02T12:35:42.678Z,9.85
2023-03-02T12:38:28.261Z,9.95
2023-03-02T12:41:17.536Z,10.03
2023-03-02T12:43:48.893Z,10.10
2023-03-02T12:46:31.671Z,10.10
2023-03-02T12:49:07.642Z,10.12
2023-03-02T12:51:47.479Z,10.28
2023-03-02T12:54:17.759Z,10.46
2023-03-02T12:56:45.621Z,10.44
2023-03-02T12:59:24.232Z,10.39
2023-03-02T13:01:51.791Z,10.48
2023-03-02T13:04:27.546Z,10.58
2023-03-02T13:06:56.549Z,10.62
2023-03-02T13:09:24.299Z,10.69
2023-03-02T13:11:54.724Z,10.74
2023-03-02T13:14:25.897Z,10.83
2023-03-02T13:16:58.572Z,10.79
2023-03-02T13:19:26.822Z,10.73
2023-03-02T13:21:55.861Z,10.75
2023-03-02T13:24:30.614Z,10.81
2023-03-02T13:27:00.350Z,10.93
2023-03-02T13:29:31.679Z,10.95
2023-03-02T13:32:02.186Z,10.90
2023-03-02T13:34:30.964Z,10.87
2023-03-02T13:36:59.973Z,10.98
2023-03-02T13:39:29.565Z,10.97
2023-03-02T13:41:58.455Z,10.99
2023-03-02T13:44:28.745Z,10.93
2023-03-02T13:46:56.518Z,10.89
2023-03-02T13:49:28.596Z,10.91
2023-03-02T13:52:02.092Z,10.97
2023-03-02T13:54:31.711Z,11.01
2023-03-02T13:57:02.582Z,11.09
2023-03-02T13:59:32.103Z,11.05
2023-03-02T14:01:59.638Z,11.02
2023-03-02T14:04:27.225Z,11.06
2023-03-02T14:06:55.541Z,11.11
2023-03-02T14:09:27.004Z,11.08
2023-03-02T14:11:56.911Z,11.07
2023-03-02T14:14:26.486Z,11.09
2023-03-02T14:16:54.020Z,11.18
2023-03-02T14:19:22.218Z,11.26
2023-03-02T14:21:49.773Z,11.30
2023-03-02T14:24:17.294Z,11.26
2023-03-02T14:26:47.811Z,11.29
2023-03-02T14:29:22.096Z,11.27
2023-03-02T14:31:49.589Z,11.28
2023-03-02T14:34:17.677Z,11.29
2023-03-02T14:36:48.030Z,11.41
2023-03-02T14:39:21.428Z,11.47
2023-03-02T14:41:53.734Z,11.54
2023-03-02T14:44:22.299Z,11.56
2023-03-02T14:46:49.973Z,11.50
2023-03-02T14:49:17.581Z,11.43
2023-03-02T14:51:46.060Z,11.50
2023-03-02T14:54:15.962Z,11.54
2023-03-02T14:56:44.027Z,11.37
2023-03-02T14:59:15.265Z,11.35
2023-03-02T15:01:44.462Z,11.32
2023-03-02T15:04:12.321Z,11.41
2023-03-02T15:06:41.185Z,11.38
2023-03-02T15:09:09.399Z,11.39
2023-03-02T15:11:36.950Z,11.39
2023-03-02T15:14:04.556Z,11.37
2023-03-02T15:16:33.484Z,11.33
2023-03-02T15:19:00.993Z,11.36
2023-03-02T15:21:28.524Z,11.37
2023-03-02T15:23:56.215Z,11.36
2023-03-02T15:26:23.802Z,11.38
2023-03-02T15:28:52.130Z,11.35
2023-03-02T15:31:21.133Z,11.33
2023-03-02T15:33:52.011Z,11.27
2023-03-02T15:36:19.662Z,11.24
2023-03-02T15:38:50.184Z,11.28
2023-03-02T15:41:18.123Z,11.24
2023-03-02T15:43:46.061Z,11.21
2023-03-02T15:46:13.844Z,11.26
2023-03-02T15:48:41.371Z,11.29
2023-03-02T15:51:11.226Z,11.25
2023-03-02T15:53:39.929Z,11.28
2023-03-02T15:56:08.581Z,11.23
2023-03-02T15:58:36.721Z,11.18
2023-03-02T16:01:08.325Z,11.18
2023-03-02T16:03:36.141Z,11.19
2023-03-02T16:06:03.744Z,11.15
2023-03-02T16:08:32.729Z,11.18
2023-03-02T16:11:02.018Z,11.12
2023-03-02T16:13:30.887Z,11.06
2023-03-02T16:16:01.274Z,10.98
2023-03-02T16:18:29.096Z,10.99
2023-03-02T16:20:56.638Z,10.91
2023-03-02T16:23:24.310Z,10.81
2023-03-02T16:25:53.249Z,10.79
2023-03-02T16:28:21.131Z,10.78
2023-03-02T16:30:49.277Z,10.74
2023-03-02T16:33:18.923Z,10.69
2023-03-02T16:35:48.150Z,10.66
2023-03-02T16:38:16.869Z,10.65
2023-03-02T16:40:44.479Z,10.60
2023-03-02T16:43:13.389Z,10.55
2023-03-02T16:45:41.046Z,10.49
2023-03-02T16:48:08.764Z,10.41
2023-03-02T16:50:36.482Z,10.40
2023-03-02T16:53:04.211Z,10.27
2023-03-02T16:55:31.834Z,10.25
2023-03-02T16:57:59.390Z,10.19
2023-03-02T17:00:30.409Z,10.12
2023-03-02T17:02:58.236Z,10.11
2023-03-02T17:05:25.874Z,10.01
2023-03-02T17:07:53.671Z,9.98
2023-03-02T17:10:22.638Z,9.97
2023-03-02T17:12:50.205Z,9.90
2023-03-02T17:15:17.860Z,9.82
2023-03-02T17:17:46.815Z,9.80
2023-03-02T17:20:16.371Z,9.72
2023-03-02T17:22:44.056Z,9.65
2023-03-02T17:25:12.739Z,9.63
2023-03-02T17:27:41.464Z,9.57
2023-03-02T17:30:12.458Z,9.49
2023-03-02T17:32:40.260Z,9.47
2023-03-02T17:35:11.513Z,9.42
2023-03-02T17:37:39.336Z,9.43
2023-03-02T17:40:08.175Z,9.28
2023-03-02T17:42:35.831Z,9.33
2023-03-02T17:45:03.501Z,9.30
2023-03-02T17:47:32.789Z,9.23
2023-03-02T17:50:01.397Z,9.20
2023-03-02T17:52:30.329Z,9.13
2023-03-02T17:54:57.998Z,9.09
2023-03-02T17:57:25.799Z,9.14
2023-03-02T17:59:53.416Z,9.13
2023-03-02T18:02:29.402Z,9.08
2023-03-02T18:04:57.294Z,9.03
2023-03-02T18:07:24.912Z,8.91
2023-03-02T18:09:53.870Z,8.79
2023-03-02T18:12:21.551Z,8.80
2023-03-02T18:14:49.295Z,8.69
2023-03-02T18:17:19.993Z,8.71
2023-03-02T18:19:48.025Z,8.66
2023-03-02T18:22:15.728Z,8.55
2023-03-02T18:24:43.480Z,8.59
2023-03-02T18:27:12.767Z,8.61
2023-03-02T18:29:40.236Z,8.51
2023-03-02T18:32:07.866Z,8.51
2023-03-02T18:34:35.373Z,8.46
2023-03-02T18:37:03.430Z,8.48
2023-03-02T18:39:31.015Z,8.50
2023-03-02T18:41:58.569Z,8.45
2023-03-02T18:44:28.315Z,8.35
2023-03-02T18:46:56.187Z,8.32
2023-03-02T18:49:24.320Z,8.16
2023-03-02T18:51:52.918Z,8.21
2023-03-02T18:54:20.674Z,8.13
2023-03-02T18:56:48.878Z,8.11
2023-03-02T18:59:17.769Z,8.05
2023-03-02T19:01:47.191Z,8.03
2023-03-02T19:04:15.360Z,8.04
2023-03-02T19:06:43.537Z,7.97
2023-03-02T19:09:11.673Z,7.98
2023-03-02T19:11:39.260Z,7.93
2023-03-02T19:14:06.918Z,7.88
2023-03-02T19:16:39.978Z,7.83
2023-03-02T19:19:09.000Z,7.81
2023-03-02T19:21:36.688Z,7.75
2023-03-02T19:24:04.616Z,7.73
2023-03-02T19:26:32.468Z,7.72
2023-03-02T19:29:06.477Z,7.67
2023-03-02T19:31:47.914Z,7.66
2023-03-02T19:34:36.463Z,7.62
2023-03-02T19:37:08.224Z,7.56
2023-03-02T19:39:36.059Z,7.52
2023-03-02T19:42:03.735Z,7.38
2023-03-02T19:44:31.632Z,7.42
2023-03-02T19:46:59.339Z,7.41
2023-03-02T19:49:28.338Z,7.38
2023-03-02T19:51:56.514Z,7.37
2023-03-02T19:54:24.229Z,7.35
2023-03-02T19:56:53.905Z,7.34
2023-03-02T19:59:22.792Z,7.28
2023-03-02T20:01:51.350Z,7.23
2023-03-02T20:04:19.382Z,7.22
2023-03-02T20:06:48.545Z,7.21
2023-03-02T20:09:19.689Z,7.20
2023-03-02T20:11:47.584Z,7.17
2023-03-02T20:14:31.451Z,7.11
2023-03-02T20:17:01.007Z,7.18
2023-03-02T20:19:28.671Z,7.17
2023-03-02T20:21:57.592Z,7.17
2023-03-02T20:24:25.150Z,7.07
2023-03-02T20:26:52.729Z,7.09
2023-03-02T20:29:20.466Z,7.06
2023-03-02T20:31:48.116Z,7.00
2023-03-02T20:34:16.440Z,6.97
2023-03-02T20:36:44.705Z,6.92
2023-03-02T20:39:17.599Z,6.92
2023-03-02T20:41:45.750Z,6.88
2023-03-02T20:44:14.780Z,6.82
2023-03-02T20:46:46.001Z,6.82
2023-03-02T20:49:15.541Z,6.82
2023-03-02T20:51:49.169Z,6.77
2023-03-02T20:54:18.673Z,6.74
2023-03-02T20:56:46.436Z,6.78
2023-03-02T20:59:14.480Z,6.75
2023-03-02T21:01:43.181Z,6.73
2023-03-02T21:04:10.948Z,6.66
2023-03-02T21:06:38.727Z,6.59
2023-03-02T21:09:08.304Z,6.53
2023-03-02T21:11:38.433Z,6.51
2023-03-02T21:14:06.354Z,6.48
2023-03-02T21:16:37.247Z,6.45
2023-03-02T21:19:05.205Z,6.40
2023-03-02T21:21:41.339Z,6.38
2023-03-02T21:24:09.846Z,6.38
2023-03-02T21:26:41.509Z,6.31
2023-03-02T21:29:09.477Z,6.25
2023-03-02T21:31:37.253Z,6.21
2023-03-02T21:34:05.080Z,6.21
2023-03-02T21:36:33.500Z,6.13
2023-03-02T21:39:01.314Z,6.09
2023-03-02T21:41:29.370Z,6.07
2023-03-02T21:43:58.831Z,6.04
2023-03-02T21:46:26.513Z,5.98
2023-03-02T21:48:54.404Z,5.96
2023-03-02T21:51:23.433Z,5.94
2023-03-02T21:53:52.976Z,5.88
2023-03-02T21:56:23.001Z,5.79
2023-03-02T21:58:51.862Z,5.78
2023-03-02T22:01:21.542Z,5.78
2023-03-02T22:03:49.978Z,5.74
2023-03-02T22:06:19.004Z,5.68
2023-03-02T22:08:46.772Z,5.61
2023-03-02T22:11:19.406Z,5.60
2023-03-02T22:13:53.316Z,5.62
2023-03-02T22:16:26.907Z,5.57
2023-03-02T22:18:56.674Z,5.56
2023-03-02T22:21:29.693Z,5.56
2023-03-02T22:24:02.138Z,5.52
2023-03-02T22:26:30.005Z,5.53
2023-03-02T22:29:04.310Z,5.46
2023-03-02T22:31:33.612Z,5.39
2023-03-02T22:34:01.518Z,5.33
2023-03-02T22:36:32.104Z,5.30
2023-03-02T22:39:01.523Z,5.32
2023-03-02T22:41:29.209Z,5.20
2023-03-02T22:43:57.676Z,5.20
2023-03-02T22:46:26.846Z,5.12
2023-03-02T22:48:55.907Z,5.12
2023-03-02T22:51:26.175Z,5.12
2023-03-02T22:53:55.279Z,5.10
2023-03-02T22:56:29.783Z,5.04
2023-03-02T22:58:57.775Z,5.02
2023-03-02T23:01:27.198Z,4.93
2023-03-02T23:03:59.748Z,4.82
2023-03-02T23:06:30.230Z,4.80
2023-03-02T23:09:00.313Z,4.72
2023-03-02T23:11:28.867Z,4.70
2023-03-02T23:13:56.853Z,4.69
2023-03-02T23:16:26.040Z,4.65
2023-03-02T23:18:56.954Z,4.59
2023-03-02T23:21:28.464Z,4.54
2023-03-02T23:23:56.207Z,4.52
2023-03-02T23:26:23.838Z,4.54
2023-03-02T23:28:54.702Z,4.49
2023-03-02T23:31:22.354Z,4.47
2023-03-02T23:33:49.977Z,4.46
2023-03-02T23:36:21.024Z,4.42
2023-03-02T23:38:49.108Z,4.43
2023-03-02T23:41:17.038Z,4.41
2023-03-02T23:43:44.625Z,4.42
2023-03-02T23:46:13.992Z,4.37
2023-03-02T23:48:42.080Z,4.34
2023-03-02T23:51:09.817Z,4.35
2023-03-02T23:53:38.970Z,4.31
2023-03-02T23:56:07.193Z,4.27
2023-03-02T23:58:34.792Z,4.25
